sensor_id;sensor_type;location;lat;lon;timestamp;P1;durP1;ratioP1;P2;durP2;ratioP2
40284;SDS011;25997;50.214;19.354;2022-12-07T00:01:03;31.85;;;21.80;;
40284;SDS011;25997;50.214;19.354;2022-12-07T00:04:07;26.35;;;20.45;;
40284;SDS011;25997;50.214;19.354;2022-12-07T00:07:11;25.73;;;20.83;;
40284;SDS011;25997;50.214;19.354;2022-12-07T00:10:15;25.85;;;19.52;;
40284;SDS011;25997;50.214;19.354;2022-12-07T00:13:18;25.05;;;19.92;;
40284;SDS011;25997;50.214;19.354;2022-12-07T00:16:21;27.70;;;19.45;;
40284;SDS011;25997;50.214;19.354;2022-12-07T00:19:24;27.42;;;21.13;;
40284;SDS011;25997;50.214;19.354;2022-12-07T00:22:27;25.38;;;18.92;;
40284;SDS011;25997;50.214;19.354;2022-12-07T00:25:31;25.48;;;19.23;;
40284;SDS011;25997;50.214;19.354;2022-12-07T00:28:33;31.55;;;21.70;;
40284;SDS011;25997;50.214;19.354;2022-12-07T00:31:36;29.42;;;20.60;;
40284;SDS011;25997;50.214;19.354;2022-12-07T00:34:39;22.77;;;18.25;;
40284;SDS011;25997;50.214;19.354;2022-12-07T00:37:42;25.25;;;19.10;;
40284;SDS011;25997;50.214;19.354;2022-12-07T00:40:46;23.35;;;17.73;;
40284;SDS011;25997;50.214;19.354;2022-12-07T00:43:57;23.65;;;17.40;;
40284;SDS011;25997;50.214;19.354;2022-12-07T00:47:00;23.73;;;15.90;;
40284;SDS011;25997;50.214;19.354;2022-12-07T00:50:03;21.42;;;17.27;;
40284;SDS011;25997;50.214;19.354;2022-12-07T00:53:06;21.50;;;13.95;;
40284;SDS011;25997;50.214;19.354;2022-12-07T00:56:11;23.08;;;15.88;;
40284;SDS011;25997;50.214;19.354;2022-12-07T00:59:14;18.60;;;14.52;;
40284;SDS011;25997;50.214;19.354;2022-12-07T01:02:17;20.85;;;16.10;;
40284;SDS011;25997;50.214;19.354;2022-12-07T01:05:19;21.58;;;16.35;;
40284;SDS011;25997;50.214;19.354;2022-12-07T01:08:22;23.40;;;16.48;;
40284;SDS011;25997;50.214;19.354;2022-12-07T01:11:29;18.02;;;14.15;;
40284;SDS011;25997;50.214;19.354;2022-12-07T01:14:31;20.35;;;14.30;;
40284;SDS011;25997;50.214;19.354;2022-12-07T01:17:52;16.92;;;12.65;;
40284;SDS011;25997;50.214;19.354;2022-12-07T01:20:59;17.45;;;14.07;;
40284;SDS011;25997;50.214;19.354;2022-12-07T01:24:03;20.63;;;15.55;;
40284;SDS011;25997;50.214;19.354;2022-12-07T01:27:08;20.38;;;14.90;;
40284;SDS011;25997;50.214;19.354;2022-12-07T01:30:11;16.85;;;13.85;;
40284;SDS011;25997;50.214;19.354;2022-12-07T01:33:14;17.85;;;13.23;;
40284;SDS011;25997;50.214;19.354;2022-12-07T01:36:17;17.88;;;14.02;;
40284;SDS011;25997;50.214;19.354;2022-12-07T01:39:21;21.63;;;15.65;;
40284;SDS011;25997;50.214;19.354;2022-12-07T01:42:25;17.92;;;14.23;;
40284;SDS011;25997;50.214;19.354;2022-12-07T01:48:41;17.70;;;14.02;;
40284;SDS011;25997;50.214;19.354;2022-12-07T01:51:44;17.75;;;13.35;;
40284;SDS011;25997;50.214;19.354;2022-12-07T01:54:49;18.00;;;13.82;;
40284;SDS011;25997;50.214;19.354;2022-12-07T01:57:57;18.92;;;14.35;;
40284;SDS011;25997;50.214;19.354;2022-12-07T02:01:00;16.85;;;14.38;;
40284;SDS011;25997;50.214;19.354;2022-12-07T02:04:03;20.77;;;16.17;;
40284;SDS011;25997;50.214;19.354;2022-12-07T02:07:06;20.00;;;16.20;;
40284;SDS011;25997;50.214;19.354;2022-12-07T02:10:13;18.33;;;15.00;;
40284;SDS011;25997;50.214;19.354;2022-12-07T02:13:18;20.92;;;16.30;;
40284;SDS011;25997;50.214;19.354;2022-12-07T02:16:25;23.13;;;16.15;;
40284;SDS011;25997;50.214;19.354;2022-12-07T02:26:49;22.92;;;17.15;;
40284;SDS011;25997;50.214;19.354;2022-12-07T02:30:08;25.40;;;19.90;;
40284;SDS011;25997;50.214;19.354;2022-12-07T02:33:13;25.45;;;20.10;;
40284;SDS011;25997;50.214;19.354;2022-12-07T02:36:19;23.13;;;18.10;;
40284;SDS011;25997;50.214;19.354;2022-12-07T02:39:30;27.05;;;21.30;;
40284;SDS011;25997;50.214;19.354;2022-12-07T02:42:36;26.08;;;19.05;;
40284;SDS011;25997;50.214;19.354;2022-12-07T02:45:43;25.75;;;19.40;;
40284;SDS011;25997;50.214;19.354;2022-12-07T02:48:47;31.17;;;19.92;;
40284;SDS011;25997;50.214;19.354;2022-12-07T02:51:51;32.20;;;22.05;;
40284;SDS011;25997;50.214;19.354;2022-12-07T02:54:54;25.45;;;20.55;;
40284;SDS011;25997;50.214;19.354;2022-12-07T02:58:02;31.42;;;21.95;;
40284;SDS011;25997;50.214;19.354;2022-12-07T03:01:15;28.63;;;22.20;;
40284;SDS011;25997;50.214;19.354;2022-12-07T03:04:30;29.50;;;23.33;;
40284;SDS011;25997;50.214;19.354;2022-12-07T03:07:45;23.70;;;18.77;;
40284;SDS011;25997;50.214;19.354;2022-12-07T03:10:56;26.77;;;21.33;;
40284;SDS011;25997;50.214;19.354;2022-12-07T03:14:01;25.50;;;20.75;;
40284;SDS011;25997;50.214;19.354;2022-12-07T03:17:13;23.70;;;19.88;;
40284;SDS011;25997;50.214;19.354;2022-12-07T03:20:20;24.63;;;19.83;;
40284;SDS011;25997;50.214;19.354;2022-12-07T03:23:25;22.23;;;18.20;;
40284;SDS011;25997;50.214;19.354;2022-12-07T03:26:30;24.95;;;20.25;;
40284;SDS011;25997;50.214;19.354;2022-12-07T03:29:36;23.50;;;19.33;;
40284;SDS011;25997;50.214;19.354;2022-12-07T03:32:44;20.85;;;18.23;;
40284;SDS011;25997;50.214;19.354;2022-12-07T03:35:52;26.27;;;21.10;;
40284;SDS011;25997;50.214;19.354;2022-12-07T03:39:03;23.80;;;21.08;;
40284;SDS011;25997;50.214;19.354;2022-12-07T03:42:14;29.95;;;24.98;;
40284;SDS011;25997;50.214;19.354;2022-12-07T03:45:17;28.17;;;21.90;;
40284;SDS011;25997;50.214;19.354;2022-12-07T03:48:25;27.40;;;22.38;;
40284;SDS011;25997;50.214;19.354;2022-12-07T03:51:36;25.08;;;20.77;;
40284;SDS011;25997;50.214;19.354;2022-12-07T03:54:43;28.30;;;22.02;;
40284;SDS011;25997;50.214;19.354;2022-12-07T03:57:53;24.40;;;20.80;;
40284;SDS011;25997;50.214;19.354;2022-12-07T04:00:58;21.15;;;18.92;;
40284;SDS011;25997;50.214;19.354;2022-12-07T04:04:02;22.83;;;19.15;;
40284;SDS011;25997;50.214;19.354;2022-12-07T04:07:05;20.05;;;17.45;;
40284;SDS011;25997;50.214;19.354;2022-12-07T04:10:08;21.73;;;17.42;;
40284;SDS011;25997;50.214;19.354;2022-12-07T04:13:11;23.13;;;17.63;;
40284;SDS011;25997;50.214;19.354;2022-12-07T04:16:13;21.38;;;18.15;;
40284;SDS011;25997;50.214;19.354;2022-12-07T04:19:19;20.23;;;16.13;;
40284;SDS011;25997;50.214;19.354;2022-12-07T04:22:22;23.88;;;20.13;;
40284;SDS011;25997;50.214;19.354;2022-12-07T04:25:25;22.20;;;19.15;;
40284;SDS011;25997;50.214;19.354;2022-12-07T04:28:28;20.95;;;18.75;;
40284;SDS011;25997;50.214;19.354;2022-12-07T04:31:30;21.77;;;17.98;;
40284;SDS011;25997;50.214;19.354;2022-12-07T04:34:34;23.15;;;18.08;;
40284;SDS011;25997;50.214;19.354;2022-12-07T04:37:36;20.50;;;17.67;;
40284;SDS011;25997;50.214;19.354;2022-12-07T04:40:40;23.02;;;18.65;;
40284;SDS011;25997;50.214;19.354;2022-12-07T04:43:42;32.97;;;28.20;;
40284;SDS011;25997;50.214;19.354;2022-12-07T04:46:45;30.40;;;26.25;;
40284;SDS011;25997;50.214;19.354;2022-12-07T04:49:49;38.50;;;28.10;;
40284;SDS011;25997;50.214;19.354;2022-12-07T04:52:51;25.30;;;18.60;;
40284;SDS011;25997;50.214;19.354;2022-12-07T04:55:54;28.35;;;21.92;;
40284;SDS011;25997;50.214;19.354;2022-12-07T04:58:56;24.80;;;21.48;;
40284;SDS011;25997;50.214;19.354;2022-12-07T05:01:59;17.73;;;15.82;;
40284;SDS011;25997;50.214;19.354;2022-12-07T05:05:03;24.75;;;22.35;;
40284;SDS011;25997;50.214;19.354;2022-12-07T05:08:06;25.55;;;22.33;;
40284;SDS011;25997;50.214;19.354;2022-12-07T05:11:08;27.50;;;24.90;;
40284;SDS011;25997;50.214;19.354;2022-12-07T05:14:32;24.27;;;21.80;;
40284;SDS011;25997;50.214;19.354;2022-12-07T05:17:35;21.85;;;18.23;;
40284;SDS011;25997;50.214;19.354;2022-12-07T05:20:39;21.77;;;18.02;;
40284;SDS011;25997;50.214;19.354;2022-12-07T05:23:42;28.63;;;20.75;;
40284;SDS011;25997;50.214;19.354;2022-12-07T05:26:45;44.30;;;39.10;;
40284;SDS011;25997;50.214;19.354;2022-12-07T05:29:47;33.90;;;26.45;;
40284;SDS011;25997;50.214;19.354;2022-12-07T05:32:51;24.38;;;18.85;;
40284;SDS011;25997;50.214;19.354;2022-12-07T05:35:55;17.48;;;14.13;;
40284;SDS011;25997;50.214;19.354;2022-12-07T05:38:58;23.13;;;17.30;;
40284;SDS011;25997;50.214;19.354;2022-12-07T05:42:00;20.85;;;17.55;;
40284;SDS011;25997;50.214;19.354;2022-12-07T05:45:15;19.42;;;16.95;;
40284;SDS011;25997;50.214;19.354;2022-12-07T05:48:18;22.85;;;19.42;;
40284;SDS011;25997;50.214;19.354;2022-12-07T05:51:22;19.55;;;17.45;;
40284;SDS011;25997;50.214;19.354;2022-12-07T05:54:24;21.13;;;17.55;;
40284;SDS011;25997;50.214;19.354;2022-12-07T05:57:27;21.35;;;17.95;;
40284;SDS011;25997;50.214;19.354;2022-12-07T06:00:29;21.70;;;17.55;;
40284;SDS011;25997;50.214;19.354;2022-12-07T06:03:31;22.52;;;18.50;;
40284;SDS011;25997;50.214;19.354;2022-12-07T06:06:35;20.30;;;17.05;;
40284;SDS011;25997;50.214;19.354;2022-12-07T06:09:37;20.75;;;16.55;;
40284;SDS011;25997;50.214;19.354;2022-12-07T06:12:40;20.48;;;17.05;;
40284;SDS011;25997;50.214;19.354;2022-12-07T06:15:43;20.40;;;17.75;;
40284;SDS011;25997;50.214;19.354;2022-12-07T06:18:46;19.38;;;15.82;;
40284;SDS011;25997;50.214;19.354;2022-12-07T06:21:50;18.08;;;16.10;;
40284;SDS011;25997;50.214;19.354;2022-12-07T06:24:53;31.05;;;22.58;;
40284;SDS011;25997;50.214;19.354;2022-12-07T06:27:55;24.45;;;18.42;;
40284;SDS011;25997;50.214;19.354;2022-12-07T06:30:58;24.00;;;17.98;;
40284;SDS011;25997;50.214;19.354;2022-12-07T06:34:01;27.20;;;22.45;;
40284;SDS011;25997;50.214;19.354;2022-12-07T06:37:06;24.33;;;18.70;;
40284;SDS011;25997;50.214;19.354;2022-12-07T06:40:09;37.20;;;28.15;;
40284;SDS011;25997;50.214;19.354;2022-12-07T06:43:12;21.58;;;17.30;;
40284;SDS011;25997;50.214;19.354;2022-12-07T06:46:15;24.05;;;21.45;;
40284;SDS011;25997;50.214;19.354;2022-12-07T06:49:18;22.63;;;19.60;;
40284;SDS011;25997;50.214;19.354;2022-12-07T06:52:22;27.30;;;24.13;;
40284;SDS011;25997;50.214;19.354;2022-12-07T06:55:24;21.20;;;18.92;;
40284;SDS011;25997;50.214;19.354;2022-12-07T06:58:27;23.73;;;20.05;;
40284;SDS011;25997;50.214;19.354;2022-12-07T07:01:29;25.90;;;19.85;;
40284;SDS011;25997;50.214;19.354;2022-12-07T07:04:32;25.13;;;21.85;;
40284;SDS011;25997;50.214;19.354;2022-12-07T07:07:36;25.15;;;20.58;;
40284;SDS011;25997;50.214;19.354;2022-12-07T07:10:38;25.80;;;21.83;;
40284;SDS011;25997;50.214;19.354;2022-12-07T07:13:41;23.98;;;19.95;;
40284;SDS011;25997;50.214;19.354;2022-12-07T07:16:44;24.08;;;19.80;;
40284;SDS011;25997;50.214;19.354;2022-12-07T07:19:46;27.33;;;22.83;;
40284;SDS011;25997;50.214;19.354;2022-12-07T07:22:50;27.90;;;21.40;;
40284;SDS011;25997;50.214;19.354;2022-12-07T07:25:55;22.73;;;19.13;;
40284;SDS011;25997;50.214;19.354;2022-12-07T07:28:57;24.13;;;19.10;;
40284;SDS011;25997;50.214;19.354;2022-12-07T07:32:00;22.10;;;18.15;;
40284;SDS011;25997;50.214;19.354;2022-12-07T07:35:03;23.88;;;20.38;;
40284;SDS011;25997;50.214;19.354;2022-12-07T07:38:07;24.52;;;19.88;;
40284;SDS011;25997;50.214;19.354;2022-12-07T07:41:10;22.27;;;16.30;;
40284;SDS011;25997;50.214;19.354;2022-12-07T07:44:12;23.63;;;19.15;;
40284;SDS011;25997;50.214;19.354;2022-12-07T07:47:15;18.52;;;15.52;;
40284;SDS011;25997;50.214;19.354;2022-12-07T07:50:17;19.48;;;16.30;;
40284;SDS011;25997;50.214;19.354;2022-12-07T07:53:22;16.20;;;14.43;;
40284;SDS011;25997;50.214;19.354;2022-12-07T07:56:25;16.95;;;14.15;;
40284;SDS011;25997;50.214;19.354;2022-12-07T07:59:28;19.05;;;14.98;;
40284;SDS011;25997;50.214;19.354;2022-12-07T08:02:30;15.93;;;13.48;;
40284;SDS011;25997;50.214;19.354;2022-12-07T08:05:33;16.02;;;12.63;;
40284;SDS011;25997;50.214;19.354;2022-12-07T08:08:37;18.05;;;13.93;;
40284;SDS011;25997;50.214;19.354;2022-12-07T08:11:40;14.25;;;12.35;;
40284;SDS011;25997;50.214;19.354;2022-12-07T08:14:42;16.23;;;12.27;;
40284;SDS011;25997;50.214;19.354;2022-12-07T08:17:45;17.60;;;14.60;;
40284;SDS011;25997;50.214;19.354;2022-12-07T08:20:47;15.52;;;13.57;;
40284;SDS011;25997;50.214;19.354;2022-12-07T08:23:51;13.88;;;11.68;;
40284;SDS011;25997;50.214;19.354;2022-12-07T08:26:54;15.38;;;12.15;;
40284;SDS011;25997;50.214;19.354;2022-12-07T08:29:56;14.10;;;11.85;;
40284;SDS011;25997;50.214;19.354;2022-12-07T08:32:59;14.68;;;11.93;;
40284;SDS011;25997;50.214;19.354;2022-12-07T08:36:02;14.27;;;11.43;;
40284;SDS011;25997;50.214;19.354;2022-12-07T08:39:07;14.77;;;12.32;;
40284;SDS011;25997;50.214;19.354;2022-12-07T08:42:10;17.98;;;13.32;;
40284;SDS011;25997;50.214;19.354;2022-12-07T08:45:12;15.45;;;13.05;;
40284;SDS011;25997;50.214;19.354;2022-12-07T08:48:16;14.35;;;12.75;;
40284;SDS011;25997;50.214;19.354;2022-12-07T08:51:22;15.10;;;13.45;;
40284;SDS011;25997;50.214;19.354;2022-12-07T08:54:27;14.50;;;13.00;;
40284;SDS011;25997;50.214;19.354;2022-12-07T08:57:30;17.70;;;14.23;;
40284;SDS011;25997;50.214;19.354;2022-12-07T09:00:36;19.00;;;16.42;;
40284;SDS011;25997;50.214;19.354;2022-12-07T09:03:38;16.92;;;13.55;;
40284;SDS011;25997;50.214;19.354;2022-12-07T09:06:42;14.38;;;12.18;;
40284;SDS011;25997;50.214;19.354;2022-12-07T09:09:46;18.15;;;16.20;;
40284;SDS011;25997;50.214;19.354;2022-12-07T09:12:48;15.80;;;13.82;;
40284;SDS011;25997;50.214;19.354;2022-12-07T09:15:51;15.95;;;13.38;;
40284;SDS011;25997;50.214;19.354;2022-12-07T09:18:53;18.00;;;15.68;;
40284;SDS011;25997;50.214;19.354;2022-12-07T09:21:56;18.08;;;14.38;;
40284;SDS011;25997;50.214;19.354;2022-12-07T09:25:00;16.40;;;13.93;;
40284;SDS011;25997;50.214;19.354;2022-12-07T09:28:03;22.98;;;17.38;;
40284;SDS011;25997;50.214;19.354;2022-12-07T09:31:05;19.13;;;16.40;;
40284;SDS011;25997;50.214;19.354;2022-12-07T09:34:08;20.63;;;16.92;;
40284;SDS011;25997;50.214;19.354;2022-12-07T09:37:10;20.35;;;16.83;;
40284;SDS011;25997;50.214;19.354;2022-12-07T09:40:15;17.80;;;15.90;;
40284;SDS011;25997;50.214;19.354;2022-12-07T09:43:20;16.73;;;14.73;;
40284;SDS011;25997;50.214;19.354;2022-12-07T09:46:24;20.48;;;15.63;;
40284;SDS011;25997;50.214;19.354;2022-12-07T09:49:28;18.20;;;14.45;;
40284;SDS011;25997;50.214;19.354;2022-12-07T09:52:33;17.15;;;14.75;;
40284;SDS011;25997;50.214;19.354;2022-12-07T09:55:38;17.20;;;12.43;;
40284;SDS011;25997;50.214;19.354;2022-12-07T09:58:42;17.88;;;14.77;;
40284;SDS011;25997;50.214;19.354;2022-12-07T10:01:46;17.10;;;12.75;;
40284;SDS011;25997;50.214;19.354;2022-12-07T10:04:50;15.23;;;12.70;;
40284;SDS011;25997;50.214;19.354;2022-12-07T10:07:53;14.88;;;12.50;;
40284;SDS011;25997;50.214;19.354;2022-12-07T10:10:57;20.90;;;17.35;;
40284;SDS011;25997;50.214;19.354;2022-12-07T10:14:10;20.40;;;15.48;;
40284;SDS011;25997;50.214;19.354;2022-12-07T10:17:26;21.63;;;17.65;;
40284;SDS011;25997;50.214;19.354;2022-12-07T10:20:32;23.25;;;17.13;;
40284;SDS011;25997;50.214;19.354;2022-12-07T10:23:35;21.02;;;18.52;;
40284;SDS011;25997;50.214;19.354;2022-12-07T10:26:40;21.80;;;18.83;;
40284;SDS011;25997;50.214;19.354;2022-12-07T10:29:51;30.98;;;22.17;;
40284;SDS011;25997;50.214;19.354;2022-12-07T10:32:54;25.10;;;22.08;;
40284;SDS011;25997;50.214;19.354;2022-12-07T10:35:57;18.48;;;15.38;;
40284;SDS011;25997;50.214;19.354;2022-12-07T10:39:02;18.00;;;16.00;;
40284;SDS011;25997;50.214;19.354;2022-12-07T10:42:17;18.05;;;15.77;;
40284;SDS011;25997;50.214;19.354;2022-12-07T10:45:20;17.52;;;13.95;;
40284;SDS011;25997;50.214;19.354;2022-12-07T10:48:26;16.05;;;12.73;;
40284;SDS011;25997;50.214;19.354;2022-12-07T10:51:41;19.65;;;15.95;;
40284;SDS011;25997;50.214;19.354;2022-12-07T10:54:50;12.77;;;11.48;;
40284;SDS011;25997;50.214;19.354;2022-12-07T10:58:09;12.90;;;11.27;;
40284;SDS011;25997;50.214;19.354;2022-12-07T11:01:28;12.05;;;9.77;;
40284;SDS011;25997;50.214;19.354;2022-12-07T11:04:35;14.65;;;11.43;;
40284;SDS011;25997;50.214;19.354;2022-12-07T11:07:47;17.55;;;15.70;;
40284;SDS011;25997;50.214;19.354;2022-12-07T11:11:00;9.85;;;8.90;;
40284;SDS011;25997;50.214;19.354;2022-12-07T11:14:15;11.15;;;10.00;;
40284;SDS011;25997;50.214;19.354;2022-12-07T11:17:25;10.52;;;9.45;;
40284;SDS011;25997;50.214;19.354;2022-12-07T11:20:38;9.55;;;8.57;;
40284;SDS011;25997;50.214;19.354;2022-12-07T11:23:48;10.80;;;9.70;;
40284;SDS011;25997;50.214;19.354;2022-12-07T11:26:58;11.70;;;9.65;;
40284;SDS011;25997;50.214;19.354;2022-12-07T11:30:15;14.18;;;12.77;;
40284;SDS011;25997;50.214;19.354;2022-12-07T11:33:25;13.82;;;12.43;;
40284;SDS011;25997;50.214;19.354;2022-12-07T11:36:33;11.90;;;10.63;;
40284;SDS011;25997;50.214;19.354;2022-12-07T11:39:41;11.75;;;10.55;;
40284;SDS011;25997;50.214;19.354;2022-12-07T11:42:49;10.82;;;9.73;;
40284;SDS011;25997;50.214;19.354;2022-12-07T11:46:00;16.00;;;14.50;;
40284;SDS011;25997;50.214;19.354;2022-12-07T11:52:17;12.13;;;9.95;;
40284;SDS011;25997;50.214;19.354;2022-12-07T11:55:24;12.38;;;11.13;;
40284;SDS011;25997;50.214;19.354;2022-12-07T11:58:40;11.43;;;9.43;;
40284;SDS011;25997;50.214;19.354;2022-12-07T12:01:52;12.00;;;10.27;;
40284;SDS011;25997;50.214;19.354;2022-12-07T12:04:58;9.57;;;8.60;;
40284;SDS011;25997;50.214;19.354;2022-12-07T12:08:11;9.10;;;8.05;;
40284;SDS011;25997;50.214;19.354;2022-12-07T12:11:22;9.52;;;8.10;;
40284;SDS011;25997;50.214;19.354;2022-12-07T12:14:41;9.30;;;7.32;;
40284;SDS011;25997;50.214;19.354;2022-12-07T12:18:01;10.15;;;9.15;;
40284;SDS011;25997;50.214;19.354;2022-12-07T12:21:20;9.50;;;8.50;;
40284;SDS011;25997;50.214;19.354;2022-12-07T12:24:28;9.10;;;7.45;;
40284;SDS011;25997;50.214;19.354;2022-12-07T12:27:37;9.43;;;8.43;;
40284;SDS011;25997;50.214;19.354;2022-12-07T12:30:41;11.07;;;8.65;;
40284;SDS011;25997;50.214;19.354;2022-12-07T12:33:46;13.10;;;10.95;;
40284;SDS011;25997;50.214;19.354;2022-12-07T12:36:50;10.57;;;8.45;;
40284;SDS011;25997;50.214;19.354;2022-12-07T12:43:39;11.52;;;9.15;;
40284;SDS011;25997;50.214;19.354;2022-12-07T12:46:50;11.65;;;9.30;;
40284;SDS011;25997;50.214;19.354;2022-12-07T12:50:12;12.55;;;10.30;;
40284;SDS011;25997;50.214;19.354;2022-12-07T12:53:21;11.05;;;9.07;;
40284;SDS011;25997;50.214;19.354;2022-12-07T12:56:29;16.70;;;15.05;;
40284;SDS011;25997;50.214;19.354;2022-12-07T12:59:42;10.27;;;8.70;;
40284;SDS011;25997;50.214;19.354;2022-12-07T13:02:59;9.48;;;7.43;;
40284;SDS011;25997;50.214;19.354;2022-12-07T13:06:19;9.93;;;8.38;;
40284;SDS011;25997;50.214;19.354;2022-12-07T13:09:34;10.35;;;9.35;;
40284;SDS011;25997;50.214;19.354;2022-12-07T13:12:37;10.50;;;8.73;;
40284;SDS011;25997;50.214;19.354;2022-12-07T13:15:42;11.65;;;9.52;;
40284;SDS011;25997;50.214;19.354;2022-12-07T13:18:46;15.07;;;11.32;;
40284;SDS011;25997;50.214;19.354;2022-12-07T13:21:50;10.95;;;9.85;;
40284;SDS011;25997;50.214;19.354;2022-12-07T13:24:54;10.15;;;8.93;;
40284;SDS011;25997;50.214;19.354;2022-12-07T13:27:58;11.00;;;8.20;;
40284;SDS011;25997;50.214;19.354;2022-12-07T13:31:16;10.45;;;8.45;;
40284;SDS011;25997;50.214;19.354;2022-12-07T13:34:29;11.18;;;9.38;;
40284;SDS011;25997;50.214;19.354;2022-12-07T13:37:34;10.00;;;7.75;;
40284;SDS011;25997;50.214;19.354;2022-12-07T13:40:37;10.80;;;8.75;;
40284;SDS011;25997;50.214;19.354;2022-12-07T13:43:43;9.65;;;8.23;;
40284;SDS011;25997;50.214;19.354;2022-12-07T13:46:49;9.63;;;8.68;;
40284;SDS011;25997;50.214;19.354;2022-12-07T13:49:57;9.02;;;7.05;;
40284;SDS011;25997;50.214;19.354;2022-12-07T13:53:01;10.07;;;8.05;;
40284;SDS011;25997;50.214;19.354;2022-12-07T13:56:14;7.65;;;6.20;;
40284;SDS011;25997;50.214;19.354;2022-12-07T13:59:17;12.93;;;9.23;;
40284;SDS011;25997;50.214;19.354;2022-12-07T14:02:24;19.50;;;14.02;;
40284;SDS011;25997;50.214;19.354;2022-12-07T14:05:29;16.25;;;13.40;;
40284;SDS011;25997;50.214;19.354;2022-12-07T14:08:34;16.65;;;13.52;;
40284;SDS011;25997;50.214;19.354;2022-12-07T14:11:36;16.70;;;13.85;;
40284;SDS011;25997;50.214;19.354;2022-12-07T14:14:40;14.13;;;10.75;;
40284;SDS011;25997;50.214;19.354;2022-12-07T14:17:50;15.32;;;12.02;;
40284;SDS011;25997;50.214;19.354;2022-12-07T14:21:02;10.30;;;7.95;;
40284;SDS011;25997;50.214;19.354;2022-12-07T14:24:11;13.80;;;11.40;;
40284;SDS011;25997;50.214;19.354;2022-12-07T14:27:18;19.63;;;17.15;;
40284;SDS011;25997;50.214;19.354;2022-12-07T14:30:22;21.75;;;19.45;;
40284;SDS011;25997;50.214;19.354;2022-12-07T14:33:26;18.75;;;16.60;;
40284;SDS011;25997;50.214;19.354;2022-12-07T14:36:29;15.48;;;11.82;;
40284;SDS011;25997;50.214;19.354;2022-12-07T14:39:33;23.52;;;17.75;;
40284;SDS011;25997;50.214;19.354;2022-12-07T14:42:36;22.10;;;18.75;;
40284;SDS011;25997;50.214;19.354;2022-12-07T14:45:39;22.73;;;20.38;;
40284;SDS011;25997;50.214;19.354;2022-12-07T14:48:42;18.67;;;16.98;;
40284;SDS011;25997;50.214;19.354;2022-12-07T14:51:45;12.45;;;11.18;;
40284;SDS011;25997;50.214;19.354;2022-12-07T14:54:50;12.15;;;10.60;;
40284;SDS011;25997;50.214;19.354;2022-12-07T14:57:52;10.48;;;9.38;;
40284;SDS011;25997;50.214;19.354;2022-12-07T15:00:55;13.55;;;10.88;;
40284;SDS011;25997;50.214;19.354;2022-12-07T15:03:58;12.75;;;10.52;;
40284;SDS011;25997;50.214;19.354;2022-12-07T15:07:01;12.80;;;9.43;;
40284;SDS011;25997;50.214;19.354;2022-12-07T15:10:09;12.02;;;10.05;;
40284;SDS011;25997;50.214;19.354;2022-12-07T15:13:17;12.93;;;9.98;;
40284;SDS011;25997;50.214;19.354;2022-12-07T15:19:40;14.23;;;10.32;;
40284;SDS011;25997;50.214;19.354;2022-12-07T15:22:43;14.25;;;12.75;;
40284;SDS011;25997;50.214;19.354;2022-12-07T15:25:47;12.02;;;8.82;;
40284;SDS011;25997;50.214;19.354;2022-12-07T15:28:52;14.10;;;11.13;;
40284;SDS011;25997;50.214;19.354;2022-12-07T15:31:55;12.48;;;10.10;;
40284;SDS011;25997;50.214;19.354;2022-12-07T15:34:58;12.93;;;10.75;;
40284;SDS011;25997;50.214;19.354;2022-12-07T15:38:00;11.57;;;9.63;;
40284;SDS011;25997;50.214;19.354;2022-12-07T15:41:04;12.02;;;8.38;;
40284;SDS011;25997;50.214;19.354;2022-12-07T15:44:08;11.15;;;8.65;;
40284;SDS011;25997;50.214;19.354;2022-12-07T15:47:29;9.88;;;8.23;;
40284;SDS011;25997;50.214;19.354;2022-12-07T15:50:32;12.20;;;8.35;;
40284;SDS011;25997;50.214;19.354;2022-12-07T15:53:34;10.73;;;8.40;;
40284;SDS011;25997;50.214;19.354;2022-12-07T15:56:39;12.30;;;9.57;;
40284;SDS011;25997;50.214;19.354;2022-12-07T15:59:41;13.63;;;9.48;;
40284;SDS011;25997;50.214;19.354;2022-12-07T16:02:43;13.15;;;9.88;;
40284;SDS011;25997;50.214;19.354;2022-12-07T16:05:48;11.48;;;8.45;;
40284;SDS011;25997;50.214;19.354;2022-12-07T16:08:50;13.85;;;10.88;;
40284;SDS011;25997;50.214;19.354;2022-12-07T16:11:54;14.15;;;8.68;;
40284;SDS011;25997;50.214;19.354;2022-12-07T16:14:57;11.13;;;9.65;;
40284;SDS011;25997;50.214;19.354;2022-12-07T16:18:00;16.77;;;10.65;;
40284;SDS011;25997;50.214;19.354;2022-12-07T16:21:03;12.90;;;9.07;;
40284;SDS011;25997;50.214;19.354;2022-12-07T16:24:06;11.05;;;9.68;;
40284;SDS011;25997;50.214;19.354;2022-12-07T16:27:12;12.90;;;9.93;;
40284;SDS011;25997;50.214;19.354;2022-12-07T16:30:14;17.05;;;13.77;;
40284;SDS011;25997;50.214;19.354;2022-12-07T16:33:17;13.43;;;10.02;;
40284;SDS011;25997;50.214;19.354;2022-12-07T16:36:20;15.93;;;14.07;;
40284;SDS011;25997;50.214;19.354;2022-12-07T16:39:24;17.10;;;12.95;;
40284;SDS011;25997;50.214;19.354;2022-12-07T16:42:29;19.13;;;12.95;;
40284;SDS011;25997;50.214;19.354;2022-12-07T16:45:34;18.20;;;12.65;;
40284;SDS011;25997;50.214;19.354;2022-12-07T16:48:39;14.75;;;11.73;;
40284;SDS011;25997;50.214;19.354;2022-12-07T16:51:42;17.13;;;11.75;;
40284;SDS011;25997;50.214;19.354;2022-12-07T16:54:44;15.30;;;13.32;;
40284;SDS011;25997;50.214;19.354;2022-12-07T16:57:48;23.65;;;19.58;;
40284;SDS011;25997;50.214;19.354;2022-12-07T17:00:51;18.13;;;14.23;;
40284;SDS011;25997;50.214;19.354;2022-12-07T17:03:53;27.15;;;20.70;;
40284;SDS011;25997;50.214;19.354;2022-12-07T17:06:55;21.25;;;16.52;;
40284;SDS011;25997;50.214;19.354;2022-12-07T17:09:59;32.42;;;22.30;;
40284;SDS011;25997;50.214;19.354;2022-12-07T17:13:03;18.73;;;14.68;;
40284;SDS011;25997;50.214;19.354;2022-12-07T17:16:26;34.25;;;24.98;;
40284;SDS011;25997;50.214;19.354;2022-12-07T17:19:29;62.33;;;40.42;;
40284;SDS011;25997;50.214;19.354;2022-12-07T17:22:32;97.68;;;71.03;;
40284;SDS011;25997;50.214;19.354;2022-12-07T17:25:34;53.22;;;40.08;;
40284;SDS011;25997;50.214;19.354;2022-12-07T17:28:38;73.30;;;53.38;;
40284;SDS011;25997;50.214;19.354;2022-12-07T17:31:41;37.22;;;32.45;;
40284;SDS011;25997;50.214;19.354;2022-12-07T17:34:44;30.80;;;25.50;;
40284;SDS011;25997;50.214;19.354;2022-12-07T17:37:47;52.90;;;46.85;;
40284;SDS011;25997;50.214;19.354;2022-12-07T17:40:49;37.28;;;28.73;;
40284;SDS011;25997;50.214;19.354;2022-12-07T17:43:53;28.63;;;22.55;;
40284;SDS011;25997;50.214;19.354;2022-12-07T17:46:56;29.05;;;22.27;;
40284;SDS011;25997;50.214;19.354;2022-12-07T17:49:59;22.33;;;17.50;;
40284;SDS011;25997;50.214;19.354;2022-12-07T17:53:01;18.17;;;15.57;;
40284;SDS011;25997;50.214;19.354;2022-12-07T17:56:12;17.63;;;14.35;;
40284;SDS011;25997;50.214;19.354;2022-12-07T17:59:16;18.90;;;14.90;;
40284;SDS011;25997;50.214;19.354;2022-12-07T18:02:19;17.40;;;13.18;;
40284;SDS011;25997;50.214;19.354;2022-12-07T18:05:21;18.80;;;13.93;;
40284;SDS011;25997;50.214;19.354;2022-12-07T18:08:24;16.77;;;14.40;;
40284;SDS011;25997;50.214;19.354;2022-12-07T18:11:26;19.73;;;15.90;;